Time;durP1;ratioP1;P1;durP2;ratioP2;P2;SDS_P1;SDS_P2;PMS_P1;PMS_P2;Temp;Humidity;BMP_temperature;BMP_pressure;BME280_temperature;BME280_humidity;BME280_pressure;Samples;Min_cycle;Max_cycle;Signal;HPM_P1;HPM_P2
2023/02/21 02:14:48;;;;;;;2.33;1.83;;;4.00;99.90;;;;;;5053587;28;20726;-70
2023/02/21 02:17:24;;;;;;;1.73;1.40;;;4.20;99.90;;;;;;5053230;28;20295;-70
2023/02/21 02:20:37;;;;;;;2.13;1.73;;;4.40;99.90;;;;;;5053321;28;20229;-69
2023/02/21 02:23:48;;;;;;;4.00;3.65;;;4.60;99.90;;;;;;5051534;28;20296;-70
2023/02/21 02:26:40;;;;;;;2.08;1.40;;;4.80;99.90;;;;;;5052563;28;20212;-70
2023/02/21 02:29:24;;;;;;;2.97;1.70;;;4.90;99.90;;;;;;5052167;28;20205;-69
2023/02/21 02:32:21;;;;;;;1.92;1.30;;;5.10;99.90;;;;;;5053165;28;20204;-70
2023/02/21 02:34:55;;;;;;;2.85;1.73;;;5.20;99.90;;;;;;5047879;28;20211;-69
2023/02/21 02:37:30;;;;;;;1.98;1.40;;;5.30;99.90;;;;;;5052874;28;20221;-70
2023/02/21 02:40:02;;;;;;;1.45;1.35;;;5.40;99.90;;;;;;5052756;28;20221;-70
2023/02/21 02:42:39;;;;;;;1.58;1.45;;;5.50;99.90;;;;;;5052894;28;20579;-70
2023/02/21 02:45:13;;;;;;;1.48;1.38;;;5.50;99.90;;;;;;5052239;28;20204;-70
2023/02/21 02:47:43;;;;;;;1.70;1.40;;;5.60;99.90;;;;;;5052884;28;20735;-71
2023/02/21 02:55:30;;;;;;;2.42;2.17;;;5.60;99.90;;;;;;5046764;28;20251;-72
2023/02/21 02:57:57;;;;;;;5.63;1.60;;;5.60;99.90;;;;;;5035495;28;20218;-71
2023/02/21 03:00:24;;;;;;;2.88;1.73;;;5.60;99.90;;;;;;5037484;28;20222;-72
2023/02/21 03:03:10;;;;;;;1.50;1.40;;;5.60;99.90;;;;;;5036082;28;20206;-71
2023/02/21 03:05:46;;;;;;;5.05;1.80;;;5.60;99.90;;;;;;5037406;28;20202;-68
2023/02/21 03:08:21;;;;;;;2.28;1.90;;;5.50;99.90;;;;;;5039210;28;20217;-71
2023/02/21 03:10:58;;;;;;;1.70;1.60;;;5.30;99.90;;;;;;5053009;28;20652;-72
2023/02/21 03:13:34;;;;;;;3.17;1.48;;;5.20;99.90;;;;;;5057920;28;20203;-71
2023/02/21 03:16:04;;;;;;;2.22;1.60;;;5.00;99.90;;;;;;5058352;28;20633;-72
2023/02/21 03:18:40;;;;;;;2.03;1.50;;;4.90;99.90;;;;;;5057322;28;20205;-72
2023/02/21 03:21:12;;;;;;;5.85;1.60;;;4.80;99.90;;;;;;5036198;28;20264;-71
2023/02/21 03:23:42;;;;;;;1.77;1.30;;;4.70;99.90;;;;;;5034719;28;20576;-71
2023/02/21 03:26:13;;;;;;;2.88;1.40;;;4.70;99.90;;;;;;5034975;28;20213;-70
2023/02/21 03:28:41;;;;;;;1.92;1.30;;;4.50;99.90;;;;;;5033818;28;20208;-70
2023/02/21 03:31:10;;;;;;;1.70;1.60;;;4.40;99.90;;;;;;5033597;28;20194;-71
2023/02/21 03:33:37;;;;;;;3.40;1.85;;;4.40;99.90;;;;;;5033543;28;20259;-70
2023/02/21 03:36:06;;;;;;;1.70;1.35;;;4.30;99.90;;;;;;5034044;28;20209;-72
2023/02/21 03:38:34;;;;;;;2.22;1.35;;;4.20;99.90;;;;;;5034116;28;20198;-69
2023/02/21 03:41:00;;;;;;;2.20;1.67;;;4.10;99.90;;;;;;5033806;28;20218;-72
2023/02/21 03:43:28;;;;;;;1.88;1.45;;;4.10;99.90;;;;;;5034125;28;20202;-71
2023/02/21 03:45:55;;;;;;;1.85;1.42;;;4.00;99.90;;;;;;5037297;28;20206;-71
2023/02/21 03:48:22;;;;;;;3.25;1.40;;;3.90;99.90;;;;;;5037835;28;20226;-71
2023/02/21 03:50:48;;;;;;;1.50;1.30;;;3.90;99.90;;;;;;5036875;28;20197;-72
2023/02/21 03:53:15;;;;;;;3.47;1.58;;;3.90;99.90;;;;;;5035581;28;20202;-69
2023/02/21 03:55:42;;;;;;;2.15;1.50;;;3.80;99.90;;;;;;5035693;28;20218;-70
2023/02/21 03:58:09;;;;;;;1.52;1.27;;;3.70;99.90;;;;;;5035871;28;20228;-71
2023/02/21 04:00:37;;;;;;;2.50;1.60;;;3.70;99.90;;;;;;5035055;28;20236;-71
2023/02/21 04:03:04;;;;;;;2.13;1.45;;;3.70;99.90;;;;;;5034337;28;20201;-71
2023/02/21 04:05:30;;;;;;;2.42;1.60;;;3.60;99.90;;;;;;5034481;28;20284;-71
2023/02/21 04:07:57;;;;;;;1.50;1.40;;;3.50;99.90;;;;;;5034212;28;20232;-71
2023/02/21 04:10:24;;;;;;;2.03;1.35;;;3.50;99.90;;;;;;5034646;28;20208;-71
2023/02/21 04:12:50;;;;;;;1.52;1.42;;;3.50;99.90;;;;;;5033487;28;20221;-69
2023/02/21 04:15:17;;;;;;;1.38;1.20;;;3.50;99.90;;;;;;5033561;28;20208;-71
2023/02/21 04:17:45;;;;;;;3.95;2.00;;;3.50;99.90;;;;;;5032337;28;20218;-72
2023/02/21 04:20:14;;;;;;;1.48;1.33;;;3.40;99.90;;;;;;5032934;28;20579;-71
2023/02/21 04:22:40;;;;;;;2.15;1.70;;;3.40;99.90;;;;;;5032409;28;20606;-71
2023/02/21 04:25:07;;;;;;;3.67;1.65;;;3.40;99.90;;;;;;5024959;28;20198;-71
2023/02/21 04:27:34;;;;;;;3.15;2.08;;;3.40;99.90;;;;;;5033336;28;20228;-72
2023/02/21 04:30:01;;;;;;;1.45;1.33;;;3.30;99.90;;;;;;5032598;28;20198;-71
2023/02/21 04:32:28;;;;;;;2.20;1.48;;;3.30;99.90;;;;;;5032709;28;20207;-70
2023/02/21 04:34:56;;;;;;;2.20;1.77;;;3.30;99.90;;;;;;5030657;28;20201;-72
2023/02/21 04:37:23;;;;;;;1.90;1.75;;;3.30;99.90;;;;;;5029661;28;20225;-71
2023/02/21 04:39:50;;;;;;;2.33;1.80;;;3.20;99.90;;;;;;5029256;28;20222;-71
2023/02/21 04:42:17;;;;;;;6.28;2.90;;;3.30;99.90;;;;;;5029353;28;20270;-70
2023/02/21 04:44:43;;;;;;;2.60;2.38;;;3.20;99.90;;;;;;5029336;28;20233;-70
2023/02/21 04:47:10;;;;;;;4.60;2.92;;;3.30;99.90;;;;;;5027014;28;20225;-72
2023/02/21 04:49:37;;;;;;;1.75;1.50;;;3.40;99.90;;;;;;5029369;28;20202;-71
2023/02/21 04:52:05;;;;;;;1.67;1.30;;;3.40;99.90;;;;;;5029875;28;20205;-71
2023/02/21 04:54:32;;;;;;;3.58;1.90;;;3.50;99.90;;;;;;5029391;28;20217;-71
2023/02/21 04:56:59;;;;;;;2.28;2.08;;;3.50;99.90;;;;;;5028033;28;20291;-72
2023/02/21 04:59:26;;;;;;;5.95;2.15;;;3.50;99.90;;;;;;5029355;28;20248;-71
2023/02/21 05:01:53;;;;;;;2.42;1.65;;;3.40;99.90;;;;;;5028409;28;20260;-72
2023/02/21 05:04:19;;;;;;;2.20;1.85;;;3.30;99.90;;;;;;5028694;28;20209;-70
2023/02/21 05:06:46;;;;;;;1.70;1.60;;;3.30;99.90;;;;;;5028647;28;20221;-70
2023/02/21 05:09:14;;;;;;;2.05;1.65;;;3.30;99.90;;;;;;5029086;28;20216;-70
2023/02/21 05:11:41;;;;;;;2.13;1.88;;;3.30;99.90;;;;;;5029577;28;20193;-71
2023/02/21 05:14:08;;;;;;;2.65;1.73;;;3.30;99.90;;;;;;5025404;28;20203;-70
2023/02/21 05:16:35;;;;;;;4.90;2.05;;;3.20;99.90;;;;;;5026851;28;20217;-69
2023/02/21 05:19:02;;;;;;;2.67;1.90;;;3.20;99.90;;;;;;5029679;28;20256;-70
2023/02/21 05:21:28;;;;;;;2.50;1.93;;;3.20;99.90;;;;;;5028747;28;20604;-69
2023/02/21 05:23:55;;;;;;;3.75;1.77;;;3.10;99.90;;;;;;5023015;28;20468;-70
2023/02/21 05:26:28;;;;;;;1.70;1.48;;;3.10;99.90;;;;;;5032334;28;20206;-71
2023/02/21 05:28:55;;;;;;;2.05;1.85;;;3.10;99.90;;;;;;5031901;28;20202;-70
2023/02/21 05:31:22;;;;;;;2.20;1.55;;;3.10;99.90;;;;;;5035836;28;20288;-71
2023/02/21 05:33:49;;;;;;;1.90;1.52;;;3.00;99.90;;;;;;5035120;28;20626;-70
2023/02/21 05:36:16;;;;;;;1.77;1.42;;;3.00;99.90;;;;;;5036130;28;20205;-70
2023/02/21 05:38:47;;;;;;;1.85;1.65;;;3.00;99.90;;;;;;5037067;28;20202;-70
2023/02/21 05:41:14;;;;;;;1.92;1.73;;;3.00;99.90;;;;;;5035992;28;20236;-71
2023/02/21 05:43:43;;;;;;;1.95;1.75;;;3.00;99.90;;;;;;5035608;28;20212;-71
2023/02/21 05:46:18;;;;;;;2.25;1.75;;;2.90;99.90;;;;;;5028384;28;20225;-71
2023/02/21 05:48:45;;;;;;;3.75;1.60;;;2.80;99.90;;;;;;5035726;28;20209;-72
2023/02/21 05:51:12;;;;;;;2.78;1.95;;;2.80;99.90;;;;;;5035955;28;20194;-70
2023/02/21 05:53:39;;;;;;;2.67;1.65;;;2.70;99.90;;;;;;5035401;28;20206;-71
2023/02/21 05:56:06;;;;;;;2.80;1.45;;;2.60;99.90;;;;;;5053771;28;20213;-70
2023/02/21 05:58:32;;;;;;;3.17;1.52;;;2.60;99.90;;;;;;5038970;28;20222;-70
2023/02/21 06:01:00;;;;;;;2.08;1.73;;;2.50;99.90;;;;;;5033727;28;20644;-70
2023/02/21 06:03:27;;;;;;;2.65;1.65;;;2.50;99.90;;;;;;5033688;28;20205;-69
2023/02/21 06:05:54;;;;;;;1.45;1.33;;;2.40;99.90;;;;;;5034302;28;20202;-69
2023/02/21 06:08:21;;;;;;;2.58;1.75;;;2.40;99.90;;;;;;5034341;28;20221;-69
2023/02/21 06:10:47;;;;;;;3.78;1.50;;;2.40;99.90;;;;;;5034136;28;20208;-69
2023/02/21 06:13:14;;;;;;;2.75;1.75;;;2.30;99.90;;;;;;5034078;28;20202;-69
2023/02/21 06:15:41;;;;;;;2.22;1.42;;;2.30;99.90;;;;;;5035445;28;20201;-70
2023/02/21 06:18:09;;;;;;;2.20;1.77;;;2.30;99.90;;;;;;5035732;28;20217;-70
2023/02/21 06:20:36;;;;;;;1.45;1.27;;;2.30;99.90;;;;;;5036277;28;20214;-70
2023/02/21 06:23:02;;;;;;;1.52;1.42;;;2.30;99.90;;;;;;5035309;28;20222;-70
2023/02/21 06:25:29;;;;;;;2.08;1.50;;;2.20;99.90;;;;;;5034802;28;20721;-69
2023/02/21 06:27:56;;;;;;;2.28;1.70;;;2.20;99.90;;;;;;5052446;28;20232;-70
2023/02/21 06:30:22;;;;;;;6.05;1.90;;;2.20;99.90;;;;;;5040926;28;20581;-70
2023/02/21 06:32:49;;;;;;;2.17;1.42;;;2.20;99.90;;;;;;5034705;28;20206;-71
2023/02/21 06:35:17;;;;;;;1.67;1.38;;;2.20;99.90;;;;;;5042287;28;20238;-70
2023/02/21 06:37:44;;;;;;;2.47;1.65;;;2.20;99.90;;;;;;5036487;28;20229;-71
2023/02/21 06:40:11;;;;;;;2.33;1.88;;;2.20;99.90;;;;;;5048454;28;20217;-71
2023/02/21 06:42:38;;;;;;;2.70;2.17;;;2.20;99.90;;;;;;5056360;28;20576;-71
2023/02/21 06:45:05;;;;;;;2.15;1.95;;;2.20;99.90;;;;;;5056018;28;20204;-71
2023/02/21 06:47:32;;;;;;;1.63;1.50;;;2.20;99.90;;;;;;5055973;28;20222;-70
2023/02/21 06:49:58;;;;;;;2.92;2.45;;;2.30;99.90;;;;;;5055407;28;20571;-70
2023/02/21 06:52:27;;;;;;;2.75;2.40;;;2.30;99.90;;;;;;5055210;28;20200;-70
2023/02/21 06:54:53;;;;;;;1.83;1.50;;;2.30;99.90;;;;;;5018184;28;1086966;-70
2023/02/21 06:57:20;;;;;;;1.77;1.65;;;2.40;99.90;;;;;;5057433;28;20228;-70
2023/02/21 06:59:47;;;;;;;2.85;1.80;;;2.40;99.90;;;;;;5056567;28;20208;-70
2023/02/21 07:02:17;;;;;;;2.05;1.75;;;2.40;99.90;;;;;;5056895;28;20225;-70
2023/02/21 07:04:44;;;;;;;3.00;2.05;;;2.40;99.90;;;;;;5056545;28;20197;-71
2023/02/21 07:07:11;;;;;;;1.75;1.60;;;2.40;99.90;;;;;;5057594;28;20221;-70
2023/02/21 07:09:39;;;;;;;2.55;1.85;;;2.50;99.90;;;;;;5057224;28;20665;-70
2023/02/21 07:12:07;;;;;;;2.85;2.42;;;2.50;99.90;;;;;;5056977;28;20201;-71
2023/02/21 07:14:34;;;;;;;3.13;2.15;;;2.50;99.90;;;;;;5056434;28;20263;-70
2023/02/21 07:17:01;;;;;;;2.00;1.90;;;2.50;99.90;;;;;;5055163;28;20224;-70
2023/02/21 07:19:27;;;;;;;2.28;1.52;;;2.50;99.90;;;;;;5054821;28;20720;-70
2023/02/21 07:21:54;;;;;;;2.00;1.80;;;2.60;99.90;;;;;;5053430;28;20222;-70
2023/02/21 07:24:21;;;;;;;2.55;2.05;;;2.60;99.90;;;;;;5054231;28;20207;-70
2023/02/21 07:26:49;;;;;;;1.85;1.52;;;2.60;99.90;;;;;;5053363;28;20231;-70
2023/02/21 07:29:16;;;;;;;2.13;1.92;;;2.80;99.90;;;;;;5053358;28;20214;-70
2023/02/21 07:31:43;;;;;;;3.05;2.03;;;3.00;99.90;;;;;;5052962;28;20193;-70
2023/02/21 07:34:11;;;;;;;2.00;1.60;;;3.70;99.90;;;;;;5052941;28;20546;-70
2023/02/21 07:36:37;;;;;;;2.92;2.33;;;5.00;99.90;;;;;;5053534;28;20584;-70
2023/02/21 07:39:04;;;;;;;5.32;3.05;;;6.50;99.90;;;;;;5041358;28;20281;-71
2023/02/21 07:41:31;;;;;;;3.22;2.90;;;7.80;99.90;;;;;;5033040;28;20230;-71
2023/02/21 07:43:59;;;;;;;3.08;2.20;;;9.10;99.90;;;;;;5040509;28;20237;-70
2023/02/21 07:46:27;;;;;;;1.67;1.58;;;10.30;99.90;;;;;;5032772;28;20225;-69
2023/02/21 07:48:54;;;;;;;3.47;2.30;;;11.40;98.50;;;;;;5032272;28;21000;-70
2023/02/21 07:51:21;;;;;;;3.47;2.00;;;12.30;97.40;;;;;;5032227;28;20198;-71
2023/02/21 07:53:48;;;;;;;4.80;2.33;;;13.10;96.40;;;;;;5031307;28;20208;-70
2023/02/21 07:56:15;;;;;;;2.65;2.10;;;13.90;95.10;;;;;;5032501;28;20209;-71
2023/02/21 07:58:41;;;;;;;3.00;1.83;;;14.30;94.60;;;;;;5031954;28;20205;-71
2023/02/21 08:01:09;;;;;;;4.10;2.57;;;14.90;94.00;;;;;;5023922;28;20213;-70
2023/02/21 08:03:37;;;;;;;3.67;2.60;;;15.40;93.20;;;;;;5032118;28;20460;-71
2023/02/21 08:06:04;;;;;;;2.03;1.83;;;15.80;92.90;;;;;;5031953;28;20488;-70
2023/02/21 08:08:31;;;;;;;4.23;3.23;;;16.40;92.80;;;;;;5032172;28;20514;-69
2023/02/21 08:10:58;;;;;;;4.13;2.33;;;16.90;92.10;;;;;;5031666;28;20495;-70
2023/02/21 08:13:24;;;;;;;3.10;2.27;;;17.50;91.50;;;;;;5031246;28;20460;-69
2023/02/21 08:15:51;;;;;;;3.10;1.70;;;17.80;91.20;;;;;;5031540;28;20475;-70
2023/02/21 08:18:23;;;;;;;3.23;2.60;;;18.40;90.50;;;;;;5031823;28;20481;-72
2023/02/21 08:20:50;;;;;;;3.70;2.60;;;19.00;90.10;;;;;;5030801;28;21007;-73
2023/02/21 08:23:18;;;;;;;2.50;2.30;;;19.30;90.00;;;;;;5031092;28;20838;-73
2023/02/21 08:25:45;;;;;;;3.70;2.40;;;19.70;89.10;;;;;;5031424;28;20852;-73
2023/02/21 08:28:12;;;;;;;3.13;2.30;;;20.20;88.40;;;;;;5031514;28;20491;-73
2023/02/21 08:30:39;;;;;;;2.30;2.10;;;20.50;87.60;;;;;;5030995;28;20456;-73
2023/02/21 08:33:06;;;;;;;4.93;2.37;;;21.00;86.90;;;;;;5016950;28;20478;-73
2023/02/21 08:35:35;;;;;;;1.90;1.67;;;21.50;84.80;;;;;;5030012;28;20469;-72
2023/02/21 08:38:02;;;;;;;3.23;2.27;;;21.50;84.40;;;;;;5029693;28;20480;-72
2023/02/21 08:40:30;;;;;;;2.30;2.00;;;21.90;84.20;;;;;;5029412;28;20847;-72
2023/02/21 08:42:58;;;;;;;2.57;2.00;;;22.00;83.70;;;;;;5028561;28;20548;-71
2023/02/21 08:45:27;;;;;;;2.53;2.30;;;22.40;82.70;;;;;;5029757;28;20468;-72
2023/02/21 08:47:54;;;;;;;6.13;2.60;;;22.90;81.40;;;;;;5029116;28;21015;-73
2023/02/21 08:50:27;;;;;;;2.60;2.40;;;22.90;80.70;;;;;;5030300;28;20464;-72
2023/02/21 08:52:57;;;;;;;3.83;2.20;;;23.00;79.50;;;;;;5028924;28;20460;-71
2023/02/21 08:55:24;;;;;;;2.37;2.17;;;23.00;79.70;;;;;;5036731;28;20468;-73
2023/02/21 08:57:53;;;;;;;2.57;2.37;;;23.30;79.20;;;;;;5030505;28;20484;-73
2023/02/21 09:00:23;;;;;;;3.33;2.73;;;23.40;79.50;;;;;;5049855;28;20469;-70
2023/02/21 09:02:50;;;;;;;3.60;2.77;;;23.40;79.10;;;;;;5047991;28;20491;-70
2023/02/21 09:05:22;;;;;;;3.50;2.87;;;23.70;78.80;;;;;;5036735;28;20523;-70
2023/02/21 09:07:49;;;;;;;4.70;3.00;;;24.20;78.30;;;;;;5028913;28;20484;-70
2023/02/21 09:10:18;;;;;;;3.20;2.83;;;25.20;75.70;;;;;;5029123;28;20475;-71
2023/02/21 09:12:46;;;;;;;2.80;2.30;;;25.60;74.50;;;;;;5041162;28;20498;-69
2023/02/21 09:15:15;;;;;;;5.40;2.77;;;26.20;74.70;;;;;;5050264;28;20595;-69
2023/02/21 09:17:43;;;;;;;4.30;2.83;;;26.80;73.00;;;;;;5049891;28;20479;-70
2023/02/21 09:20:15;;;;;;;3.73;3.00;;;26.30;73.70;;;;;;5039363;28;20865;-70
2023/02/21 09:22:44;;;;;;;6.23;3.60;;;26.00;74.20;;;;;;5033694;28;20526;-71
2023/02/21 09:25:12;;;;;;;4.03;3.50;;;25.80;74.20;;;;;;5034357;28;20456;-71
2023/02/21 09:27:41;;;;;;;4.13;3.10;;;25.60;73.80;;;;;;5034151;28;20587;-70
2023/02/21 09:30:11;;;;;;;7.97;3.60;;;25.80;73.40;;;;;;5030213;28;20487;-69
2023/02/21 09:32:38;;;;;;;3.93;3.50;;;26.00;72.80;;;;;;5029242;28;20457;-70
2023/02/21 09:35:06;;;;;;;3.37;3.07;;;26.00;73.40;;;;;;5030369;28;20471;-70
2023/02/21 09:37:32;;;;;;;5.77;3.20;;;26.40;72.10;;;;;;5030247;28;20491;-70
2023/02/21 09:40:00;;;;;;;3.60;2.83;;;26.80;71.30;;;;;;5029822;28;20851;-70
2023/02/21 09:42:30;;;;;;;4.23;2.93;;;26.80;70.90;;;;;;5029562;28;20492;-70
2023/02/21 09:44:59;;;;;;;4.47;3.30;;;26.80;70.30;;;;;;5029357;28;20470;-69
2023/02/21 09:47:29;;;;;;;3.50;3.20;;;26.90;70.90;;;;;;5029971;28;20479;-69
2023/02/21 09:50:00;;;;;;;3.77;3.47;;;27.20;70.60;;;;;;5029931;28;20470;-70
2023/02/21 09:52:32;;;;;;;3.83;2.80;;;27.20;70.30;;;;;;5029715;28;20461;-70
2023/02/21 09:55:02;;;;;;;3.40;2.60;;;27.70;69.00;;;;;;5029835;28;20469;-70
2023/02/21 09:57:29;;;;;;;2.20;1.97;;;28.50;68.60;;;;;;5030001;28;20484;-70
2023/02/21 09:59:58;;;;;;;2.10;1.70;;;28.20;68.20;;;;;;5028144;28;20971;-70
2023/02/21 10:02:40;;;;;;;3.70;1.70;;;28.20;65.60;;;;;;5029432;28;20488;-70
2023/02/21 10:05:16;;;;;;;1.63;1.43;;;29.10;65.00;;;;;;5029517;28;20460;-70
2023/02/21 10:07:49;;;;;;;1.50;1.40;;;29.50;63.90;;;;;;5028605;28;20484;-69
2023/02/21 10:10:21;;;;;;;2.30;1.70;;;29.00;62.80;;;;;;5026924;28;20463;-70
2023/02/21 10:12:56;;;;;;;2.73;1.80;;;30.10;63.50;;;;;;5017071;28;20493;-71
2023/02/21 10:15:39;;;;;;;2.17;1.30;;;30.70;62.10;;;;;;5030308;28;20464;-71
2023/02/21 10:18:15;;;;;;;1.40;1.27;;;30.40;61.90;;;;;;5033087;28;20845;-71
2023/02/21 10:20:47;;;;;;;2.53;2.33;;;30.50;61.20;;;;;;5032458;28;20467;-71
2023/02/21 10:23:16;;;;;;;2.00;1.27;;;30.30;61.90;;;;;;5032319;28;20477;-71
2023/02/21 10:25:44;;;;;;;1.80;1.20;;;31.30;59.50;;;;;;5033207;28;20465;-68
2023/02/21 10:28:17;;;;;;;1.73;1.20;;;31.90;59.10;;;;;;5033940;28;20480;-71
2023/02/21 10:30:46;;;;;;;1.50;1.03;;;32.20;55.90;;;;;;5034329;28;20469;-72
2023/02/21 10:33:13;;;;;;;1.10;1.00;;;31.60;56.40;;;;;;5034712;28;21106;-71
2023/02/21 10:35:40;;;;;;;1.43;1.20;;;30.00;57.00;;;;;;5035016;28;20460;-72
2023/02/21 10:38:10;;;;;;;1.20;1.10;;;28.90;58.20;;;;;;5034679;28;20843;-73
2023/02/21 10:40:40;;;;;;;1.40;1.10;;;29.40;58.50;;;;;;5034902;28;20537;-72
2023/02/21 10:43:09;;;;;;;1.73;1.33;;;29.80;56.70;;;;;;5034028;28;20835;-72
2023/02/21 10:45:40;;;;;;;1.50;1.40;;;29.60;59.50;;;;;;5033516;28;20820;-72
2023/02/21 10:48:10;;;;;;;2.10;0.90;;;29.80;58.30;;;;;;5033932;28;20486;-72
2023/02/21 10:50:41;;;;;;;1.10;0.90;;;29.30;56.70;;;;;;5033377;28;20834;-72
2023/02/21 10:53:08;;;;;;;1.30;0.90;;;28.70;58.20;;;;;;5032808;28;20460;-72
2023/02/21 10:55:35;;;;;;;1.47;1.10;;;28.10;59.80;;;;;;5048614;28;20471;-72
2023/02/21 10:58:08;;;;;;;1.53;1.40;;;28.30;61.10;;;;;;5052315;28;20571;-71
2023/02/21 11:00:37;;;;;;;1.83;1.50;;;29.10;59.40;;;;;;5052552;28;20467;-72
2023/02/21 11:03:06;;;;;;;2.17;1.97;;;29.20;59.50;;;;;;5052050;28;20471;-73
2023/02/21 11:05:37;;;;;;;2.20;2.03;;;29.60;59.80;;;;;;5052693;28;20457;-72
2023/02/21 11:08:06;;;;;;;3.67;2.10;;;29.40;61.90;;;;;;5052585;28;20488;-72
2023/02/21 11:10:36;;;;;;;1.77;1.43;;;30.00;60.60;;;;;;5052371;28;20465;-72
2023/02/21 11:13:06;;;;;;;3.73;2.20;;;30.50;59.50;;;;;;5049805;28;20546;-72
2023/02/21 11:15:33;;;;;;;3.00;2.20;;;31.30;58.90;;;;;;5032002;28;20700;-72
2023/02/21 11:18:11;;;;;;;3.73;2.50;;;30.80;58.80;;;;;;5036223;28;20857;-71
2023/02/21 11:20:39;;;;;;;2.53;2.27;;;30.40;58.60;;;;;;5036969;28;20951;-71
2023/02/21 11:23:18;;;;;;;1.83;1.70;;;30.30;59.60;;;;;;5038667;28;20493;-70
2023/02/21 11:25:45;;;;;;;2.60;2.07;;;30.70;59.20;;;;;;5050914;28;20471;-70
2023/02/21 11:28:19;;;;;;;2.90;2.10;;;30.30;59.20;;;;;;5030792;28;20480;-69
2023/02/21 11:30:50;;;;;;;2.67;2.47;;;30.30;59.40;;;;;;5031355;28;20461;-70
2023/02/21 11:33:20;;;;;;;2.57;2.37;;;30.30;59.80;;;;;;5030999;28;20552;-70
2023/02/21 11:35:51;;;;;;;4.30;2.50;;;30.50;59.00;;;;;;5040089;28;20471;-71
2023/02/21 11:38:34;;;;;;;2.97;2.50;;;30.40;59.70;;;;;;5051772;28;20479;-70
2023/02/21 11:41:01;;;;;;;3.57;2.77;;;30.00;60.10;;;;;;5051388;28;20693;-70
2023/02/21 11:43:30;;;;;;;5.47;2.40;;;30.00;60.70;;;;;;5045453;28;20484;-70
2023/02/21 11:46:10;;;;;;;3.27;2.73;;;30.30;60.10;;;;;;5030349;28;20460;-70
2023/02/21 11:48:43;;;;;;;2.67;2.47;;;30.50;59.20;;;;;;5042298;28;20467;-70
2023/02/21 11:51:25;;;;;;;2.60;2.40;;;30.40;59.80;;;;;;5036878;28;20464;-70
2023/02/21 11:53:53;;;;;;;2.70;2.50;;;30.50;59.10;;;;;;5050068;28;20496;-70
2023/02/21 11:56:30;;;;;;;2.57;2.37;;;30.30;59.80;;;;;;5050732;28;20472;-70
2023/02/21 11:59:06;;;;;;;2.23;2.03;;;30.20;59.30;;;;;;5049761;28;20463;-71
2023/02/21 12:01:40;;;;;;;2.27;2.03;;;30.50;59.60;;;;;;5050633;28;20469;-71
2023/02/21 12:04:32;;;;;;;4.10;2.50;;;30.60;58.80;;;;;;5050137;28;20878;-72
2023/02/21 12:07:08;;;;;;;2.20;1.93;;;30.30;59.30;;;;;;5050069;28;20851;-72
2023/02/21 12:09:44;;;;;;;2.40;1.87;;;29.80;59.40;;;;;;5050110;28;20955;-71
2023/02/21 12:12:22;;;;;;;2.43;2.23;;;30.00;59.10;;;;;;5050206;28;20508;-71
2023/02/21 12:15:01;;;;;;;2.77;2.53;;;30.30;58.80;;;;;;5040954;28;20841;-71
2023/02/21 12:17:40;;;;;;;3.07;2.23;;;30.00;59.30;;;;;;5030496;28;21024;-71
2023/02/21 12:20:22;;;;;;;2.77;2.17;;;30.00;58.90;;;;;;5030498;28;20499;-71
2023/02/21 12:23:04;;;;;;;6.33;2.67;;;30.00;58.80;;;;;;5028779;28;20481;-71
2023/02/21 12:25:40;;;;;;;2.07;1.90;;;29.50;59.20;;;;;;5030685;28;20460;-71
2023/02/21 12:28:17;;;;;;;2.40;2.10;;;29.70;59.30;;;;;;5030050;28;20563;-71
2023/02/21 12:31:01;;;;;;;5.37;1.80;;;30.00;58.10;;;;;;5029631;28;20467;-71
2023/02/21 12:33:41;;;;;;;3.00;2.23;;;30.00;57.80;;;;;;5029957;28;20457;-71
2023/02/21 12:36:20;;;;;;;3.50;1.77;;;29.80;58.30;;;;;;5029351;28;20483;-71
2023/02/21 12:39:02;;;;;;;1.93;1.73;;;29.70;57.50;;;;;;5029612;28;20464;-71
2023/02/21 12:41:49;;;;;;;2.70;1.90;;;29.20;57.50;;;;;;5030256;28;20467;-72
2023/02/21 12:44:20;;;;;;;2.40;2.20;;;28.90;59.10;;;;;;5029632;28;20464;-71
2023/02/21 12:46:54;;;;;;;2.27;2.00;;;28.70;58.90;;;;;;5029327;28;20487;-70
2023/02/21 12:49:24;;;;;;;3.30;2.40;;;28.50;58.70;;;;;;5030327;28;20461;-70
2023/02/21 12:51:56;;;;;;;1.87;1.63;;;28.50;59.80;;;;;;5029325;28;20464;-69
2023/02/21 12:54:39;;;;;;;3.93;2.00;;;28.50;59.70;;;;;;5032947;28;20468;-70
2023/02/21 12:57:12;;;;;;;2.97;1.70;;;28.80;58.40;;;;;;5086697;22;20494;-93
2023/02/21 12:59:51;;;;;;;3.63;1.73;;;28.80;58.80;;;;;;5077884;28;20486;-93
2023/02/21 13:05:12;;;;;;;1.93;1.77;;;29.00;58.70;;;;;;5089190;28;20463;-93
2023/02/21 13:07:46;;;;;;;2.57;1.70;;;29.10;58.60;;;;;;5074922;28;20464;-93
2023/02/21 13:10:19;;;;;;;1.40;1.30;;;29.00;57.90;;;;;;5067353;28;20470;-92
2023/02/21 13:12:57;;;;;;;1.40;1.30;;;28.60;58.80;;;;;;5067640;28;20472;-93
2023/02/21 13:15:28;;;;;;;2.50;1.63;;;28.60;58.20;;;;;;5068021;28;20493;-91
2023/02/21 13:18:00;;;;;;;2.87;1.80;;;28.90;58.30;;;;;;5057449;28;20502;-91
2023/02/21 13:20:31;;;;;;;1.40;1.30;;;28.20;59.40;;;;;;5057920;28;20462;-92
2023/02/21 13:22:59;;;;;;;3.30;1.83;;;28.10;58.60;;;;;;5060272;28;21034;-92
2023/02/21 13:25:45;;;;;;;1.40;1.30;;;27.90;58.70;;;;;;5061134;28;20459;-92
2023/02/21 13:28:17;;;;;;;1.50;1.30;;;27.40;58.70;;;;;;5068271;28;20467;-93
2023/02/21 13:30:48;;;;;;;4.63;1.67;;;27.10;59.40;;;;;;5070098;28;20479;-92
2023/02/21 13:33:30;;;;;;;1.70;1.60;;;27.00;59.90;;;;;;5069921;28;20456;-91
2023/02/21 13:36:01;;;;;;;2.40;1.10;;;27.30;59.90;;;;;;5069946;28;20479;-93
2023/02/21 13:38:33;;;;;;;2.93;1.20;;;27.40;59.00;;;;;;5069027;28;20501;-92
2023/02/21 13:41:09;;;;;;;2.37;1.50;;;27.80;58.80;;;;;;5063434;28;20530;-93
2023/02/21 13:43:44;;;;;;;1.57;1.40;;;28.00;58.10;;;;;;5059107;28;20483;-91
2023/02/21 13:46:47;;;;;;;1.10;1.00;;;27.70;59.50;;;;;;5065979;28;20456;-93
2023/02/21 13:49:49;;;;;;;1.43;1.20;;;27.70;58.90;;;;;;5070404;28;20463;-93
2023/02/21 13:52:38;;;;;;;1.73;1.50;;;28.10;58.30;;;;;;5022968;28;20564;-93
2023/02/21 13:55:25;;;;;;;1.50;1.20;;;27.90;58.80;;;;;;5027327;28;20480;-93
2023/02/21 13:58:32;;;;;;;1.20;1.10;;;27.70;59.10;;;;;;5060284;28;20877;-94
2023/02/21 14:01:17;;;;;;;1.30;1.20;;;27.60;58.60;;;;;;5077459;28;20451;-93
2023/02/21 14:03:52;;;;;;;1.90;1.20;;;27.60;58.90;;;;;;5078818;28;20526;-93
2023/02/21 14:06:39;;;;;;;1.27;1.17;;;27.60;58.90;;;;;;5070918;28;20459;-93
2023/02/21 14:09:17;;;;;;;1.20;1.10;;;27.70;58.90;;;;;;5073242;28;20483;-93
2023/02/21 14:11:50;;;;;;;2.10;1.90;;;27.60;58.50;;;;;;5075803;28;20459;-93
2023/02/21 14:14:55;;;;;;;1.60;1.10;;;27.50;58.70;;;;;;5074425;28;20479;-92
2023/02/21 14:17:34;;;;;;;1.17;1.00;;;27.40;58.90;;;;;;5068333;28;20489;-93
2023/02/21 14:20:04;;;;;;;4.13;1.50;;;27.40;59.70;;;;;;5070945;28;20447;-92
2023/02/21 14:22:32;;;;;;;1.13;0.90;;;27.10;58.90;;;;;;5069112;28;20472;-92
2023/02/21 14:25:07;;;;;;;1.00;0.90;;;26.80;59.10;;;;;;5069967;28;20455;-93
2023/02/21 14:27:38;;;;;;;1.43;0.87;;;26.40;59.20;;;;;;5068346;28;20459;-93
2023/02/21 14:30:36;;;;;;;1.10;0.90;;;26.30;60.50;;;;;;5068539;28;20556;-93
2023/02/21 14:33:22;;;;;;;2.70;1.17;;;26.20;59.60;;;;;;5066584;28;20478;-92
2023/02/21 14:35:57;;;;;;;1.63;1.40;;;26.10;59.70;;;;;;5075903;28;20527;-93
2023/02/21 14:38:30;;;;;;;1.67;1.10;;;26.00;60.90;;;;;;5073443;28;20457;-93
2023/02/21 14:41:07;;;;;;;1.93;1.00;;;26.00;60.30;;;;;;5074360;28;20539;-93
2023/02/21 14:43:56;;;;;;;2.30;1.30;;;25.60;60.70;;;;;;5072366;28;20485;-93
2023/02/21 14:46:55;;;;;;;1.07;0.90;;;25.40;61.70;;;;;;5072044;28;20458;-93
2023/02/21 14:49:47;;;;;;;9.90;1.40;;;25.10;61.20;;;;;;5071160;28;20463;-93
2023/02/21 14:52:40;;;;;;;4.80;1.00;;;24.80;62.30;;;;;;5071806;28;20553;-93
2023/02/21 14:55:35;;;;;;;1.57;1.10;;;24.70;64.90;;;;;;5055225;28;20470;-94
2023/02/21 14:58:39;;;;;;;1.20;0.90;;;24.40;63.60;;;;;;5078123;28;20439;-96
2023/02/21 15:01:14;;;;;;;1.20;1.03;;;24.50;62.70;;;;;;5079101;28;20443;-94
2023/02/21 15:03:47;;;;;;;1.10;1.00;;;24.50;63.30;;;;;;5079379;28;20493;-94
2023/02/21 15:06:19;;;;;;;1.07;0.90;;;24.40;63.30;;;;;;5079351;28;20523;-94
2023/02/21 15:08:49;;;;;;;1.87;1.20;;;24.50;62.70;;;;;;5079196;28;20451;-92
2023/02/21 15:11:26;;;;;;;2.30;1.23;;;24.30;63.40;;;;;;5079618;28;20432;-96
2023/02/21 15:14:14;;;;;;;2.33;1.10;;;24.00;63.90;;;;;;5078931;28;20490;-95
2023/02/21 15:16:44;;;;;;;1.67;1.00;;;23.70;63.20;;;;;;5090155;22;21086;-71
2023/02/21 15:19:21;;;;;;;1.20;1.10;;;23.60;63.80;;;;;;5052813;28;20463;-70
2023/02/21 15:21:49;;;;;;;1.87;1.00;;;23.50;64.40;;;;;;5053175;28;20516;-71
2023/02/21 15:24:16;;;;;;;1.00;0.90;;;23.40;64.00;;;;;;5052476;28;20480;-70
2023/02/21 15:26:43;;;;;;;1.93;1.10;;;23.10;65.70;;;;;;5051791;28;20479;-69
2023/02/21 15:29:13;;;;;;;1.53;1.27;;;22.90;65.50;;;;;;5051810;28;20981;-71
2023/02/21 15:31:42;;;;;;;1.10;0.80;;;22.70;65.10;;;;;;5051492;28;20471;-70
2023/02/21 15:34:17;;;;;;;1.50;1.00;;;22.40;65.40;;;;;;5054259;28;20831;-71
2023/02/21 15:36:44;;;;;;;1.30;1.20;;;22.30;64.90;;;;;;5071255;28;20859;-70